FIN9DK EFHK-ESSA
Flight info
| Callsign | FIN9DK |
|---|---|
| Flight time | 0h 47m |
| Altitude | 30000 |
| Route | ADIVO Y365 POGOK DCT RUNGA N872 XILAN |
| Aircraft | B738/M-SDE2E3FGHIRWXY/LB1 |
Departure
| Time | 2026-04-26 11:37 |
|---|---|
| Airport | Helsinki Vantaa Airport (EFHK) |
Arrival
| Time | 2026-04-26 12:24 |
|---|---|
| Airport | Stockholm-Arlanda Airport (ESSA) |
| Time | Latitude | Longitude | Altitude | Speed | Heading |
|---|---|---|---|---|---|
| 2026-04-26 11:14 | 60.31748 | 24.97123 | 166 ft | 0 kts | 243° |
| 2026-04-26 11:29 | 60.31754 | 24.97147 | 138 ft | 4 kts | 244° |
| 2026-04-26 11:29 | 60.31766 | 24.97196 | 169 ft | 4 kts | 238° |
| 2026-04-26 11:29 | 60.31782 | 24.97230 | 165 ft | 4 kts | 189° |
| 2026-04-26 11:29 | 60.31801 | 24.97219 | 165 ft | 4 kts | 153° |
| 2026-04-26 11:30 | 60.31806 | 24.97214 | 165 ft | 1 kts | 153° |
| 2026-04-26 11:32 | 60.31805 | 24.97215 | 165 ft | 1 kts | 153° |
| 2026-04-26 11:32 | 60.31790 | 24.97231 | 165 ft | 3 kts | 153° |
| 2026-04-26 11:33 | 60.31765 | 24.97257 | 165 ft | 5 kts | 153° |
| 2026-04-26 11:33 | 60.31729 | 24.97293 | 165 ft | 7 kts | 153° |
| 2026-04-26 11:33 | 60.31682 | 24.97341 | 165 ft | 8 kts | 153° |
| 2026-04-26 11:33 | 60.31623 | 24.97402 | 164 ft | 12 kts | 153° |
| 2026-04-26 11:34 | 60.31520 | 24.97508 | 160 ft | 22 kts | 151° |
| 2026-04-26 11:34 | 60.31397 | 24.97644 | 158 ft | 12 kts | 146° |
| 2026-04-26 11:34 | 60.31370 | 24.97802 | 156 ft | 13 kts | 129° |
| 2026-04-26 11:34 | 60.31286 | 24.97899 | 157 ft | 16 kts | 153° |
| 2026-04-26 11:35 | 60.31157 | 24.98032 | 158 ft | 25 kts | 154° |
| 2026-04-26 11:35 | 60.31023 | 24.98164 | 157 ft | 12 kts | 157° |
| 2026-04-26 11:35 | 60.30974 | 24.98280 | 156 ft | 12 kts | 94° |
| 2026-04-26 11:35 | 60.30993 | 24.98391 | 154 ft | 14 kts | 63° |
| 2026-04-26 11:36 | 60.31063 | 24.98465 | 155 ft | 8 kts | 333° |
| 2026-04-26 11:36 | 60.31183 | 24.98341 | 157 ft | 45 kts | 333° |
| 2026-04-26 11:36 | 60.31679 | 24.97833 | 151 ft | 112 kts | 333° |
| 2026-04-26 11:36 | 60.32510 | 24.96990 | 458 ft | 140 kts | 331° |
| 2026-04-26 11:37 | 60.33353 | 24.96030 | 1438 ft | 134 kts | 328° |
| 2026-04-26 11:37 | 60.34088 | 24.94679 | 2107 ft | 158 kts | 318° |
| 2026-04-26 11:37 | 60.34814 | 24.92699 | 2376 ft | 190 kts | 308° |
| 2026-04-26 11:37 | 60.35220 | 24.91039 | 2612 ft | 207 kts | 297° |
| 2026-04-26 11:38 | 60.35478 | 24.89240 | 2922 ft | 218 kts | 287° |
| 2026-04-26 11:38 | 60.35408 | 24.86065 | 3583 ft | 239 kts | 263° |
| 2026-04-26 11:38 | 60.34679 | 24.82893 | 4212 ft | 265 kts | 246° |
| 2026-04-26 11:39 | 60.33642 | 24.79638 | 4810 ft | 280 kts | 244° |
| 2026-04-26 11:39 | 60.32576 | 24.76364 | 5839 ft | 278 kts | 244° |
| 2026-04-26 11:39 | 60.31567 | 24.73043 | 6782 ft | 277 kts | 248° |
| 2026-04-26 11:39 | 60.30641 | 24.69699 | 7684 ft | 276 kts | 248° |
| 2026-04-26 11:40 | 60.29823 | 24.66187 | 8461 ft | 276 kts | 262° |
| 2026-04-26 11:40 | 60.29681 | 24.62459 | 9376 ft | 266 kts | 276° |
| 2026-04-26 11:40 | 60.29685 | 24.58650 | 10022 ft | 275 kts | 277° |
| 2026-04-26 11:40 | 60.29718 | 24.54682 | 10400 ft | 294 kts | 277° |
| 2026-04-26 11:41 | 60.29753 | 24.50391 | 10694 ft | 314 kts | 275° |
| 2026-04-26 11:42 | 60.29813 | 24.17732 | 16051 ft | 345 kts | 274° |
| 2026-04-26 11:43 | 60.29814 | 24.12872 | 16847 ft | 349 kts | 273° |
| 2026-04-26 11:43 | 60.29812 | 24.07942 | 17514 ft | 356 kts | 273° |
| 2026-04-26 11:43 | 60.29807 | 24.02932 | 18332 ft | 357 kts | 272° |
| 2026-04-26 11:43 | 60.29776 | 23.97869 | 18920 ft | 364 kts | 270° |
| 2026-04-26 11:44 | 60.29407 | 23.92767 | 19571 ft | 370 kts | 263° |
| 2026-04-26 11:44 | 60.28851 | 23.87643 | 20168 ft | 377 kts | 261° |
| 2026-04-26 11:44 | 60.28236 | 23.82462 | 20792 ft | 381 kts | 261° |
| 2026-04-26 11:44 | 60.27615 | 23.77254 | 21404 ft | 385 kts | 261° |
| 2026-04-26 11:45 | 60.27004 | 23.72048 | 22010 ft | 388 kts | 261° |
| 2026-04-26 11:45 | 60.26390 | 23.66707 | 22613 ft | 392 kts | 262° |
| 2026-04-26 11:45 | 60.25779 | 23.61318 | 23191 ft | 396 kts | 262° |
| 2026-04-26 11:45 | 60.25167 | 23.55873 | 23678 ft | 400 kts | 262° |
| 2026-04-26 11:46 | 60.24552 | 23.50382 | 24149 ft | 403 kts | 262° |
| 2026-04-26 11:46 | 60.23930 | 23.44843 | 24633 ft | 406 kts | 263° |
| 2026-04-26 11:46 | 60.23331 | 23.39518 | 25085 ft | 409 kts | 263° |
| 2026-04-26 11:46 | 60.22707 | 23.34005 | 25627 ft | 409 kts | 263° |
| 2026-04-26 11:47 | 60.22074 | 23.28437 | 26271 ft | 407 kts | 263° |
| 2026-04-26 11:47 | 60.21441 | 23.22903 | 26924 ft | 404 kts | 264° |
| 2026-04-26 11:47 | 60.20811 | 23.17395 | 27512 ft | 404 kts | 264° |
| 2026-04-26 11:47 | 60.20179 | 23.11890 | 28060 ft | 404 kts | 264° |
| 2026-04-26 11:48 | 60.19544 | 23.06384 | 28670 ft | 403 kts | 264° |
| 2026-04-26 11:48 | 60.18910 | 23.00907 | 29288 ft | 402 kts | 265° |
| 2026-04-26 11:48 | 60.18275 | 22.95443 | 29827 ft | 402 kts | 265° |
| 2026-04-26 11:48 | 60.17635 | 22.89929 | 29827 ft | 407 kts | 265° |
| 2026-04-26 11:49 | 60.16340 | 22.78917 | 29853 ft | 400 kts | 265° |
| 2026-04-26 11:49 | 60.15058 | 22.68054 | 29878 ft | 401 kts | 265° |
| 2026-04-26 11:50 | 60.13770 | 22.57225 | 29875 ft | 402 kts | 266° |
| 2026-04-26 11:50 | 60.12463 | 22.46301 | 29877 ft | 403 kts | 266° |
| 2026-04-26 11:51 | 60.11149 | 22.35393 | 29884 ft | 402 kts | 266° |
| 2026-04-26 11:51 | 60.09830 | 22.24520 | 29889 ft | 400 kts | 266° |
| 2026-04-26 11:52 | 60.08736 | 22.15551 | 29892 ft | 398 kts | 266° |
| 2026-04-26 11:52 | 60.07415 | 22.04792 | 29904 ft | 397 kts | 267° |
| 2026-04-26 11:53 | 60.06086 | 21.94045 | 29908 ft | 397 kts | 267° |
| 2026-04-26 11:54 | 60.04081 | 21.77986 | 29918 ft | 396 kts | 268° |
| 2026-04-26 11:54 | 60.02733 | 21.67284 | 29929 ft | 396 kts | 268° |
| 2026-04-26 11:55 | 60.01387 | 21.56676 | 29931 ft | 395 kts | 268° |
| 2026-04-26 11:55 | 60.00029 | 21.46026 | 29936 ft | 395 kts | 268° |
| 2026-04-26 11:56 | 59.98648 | 21.35384 | 29945 ft | 396 kts | 268° |
| 2026-04-26 11:56 | 59.97187 | 21.24848 | 29939 ft | 389 kts | 267° |
| 2026-04-26 11:57 | 59.95726 | 21.14498 | 29958 ft | 386 kts | 268° |
| 2026-04-26 11:57 | 59.94287 | 21.04227 | 29636 ft | 386 kts | 268° |
| 2026-04-26 11:57 | 59.93565 | 20.99139 | 29274 ft | 380 kts | 268° |
| 2026-04-26 11:58 | 59.92849 | 20.94108 | 28939 ft | 374 kts | 268° |
| 2026-04-26 11:58 | 59.92144 | 20.89150 | 28552 ft | 369 kts | 268° |
| 2026-04-26 11:58 | 59.91446 | 20.84247 | 28157 ft | 365 kts | 269° |
| 2026-04-26 11:58 | 59.90756 | 20.79405 | 27791 ft | 361 kts | 269° |
| 2026-04-26 11:59 | 59.90074 | 20.74632 | 27413 ft | 357 kts | 269° |
| 2026-04-26 11:59 | 59.89395 | 20.69891 | 27033 ft | 354 kts | 269° |
| 2026-04-26 11:59 | 59.88722 | 20.65197 | 26660 ft | 351 kts | 269° |
| 2026-04-26 11:59 | 59.88053 | 20.60550 | 26294 ft | 348 kts | 269° |
| 2026-04-26 12:00 | 59.87387 | 20.55938 | 25934 ft | 345 kts | 269° |
| 2026-04-26 12:00 | 59.86726 | 20.51371 | 25578 ft | 342 kts | 269° |
| 2026-04-26 12:00 | 59.86067 | 20.46835 | 25223 ft | 340 kts | 269° |
| 2026-04-26 12:00 | 59.85419 | 20.42383 | 24875 ft | 337 kts | 269° |
| 2026-04-26 12:01 | 59.84766 | 20.37916 | 24525 ft | 335 kts | 269° |
| 2026-04-26 12:01 | 59.84116 | 20.33476 | 24169 ft | 333 kts | 269° |
| 2026-04-26 12:01 | 59.83469 | 20.29068 | 23828 ft | 331 kts | 269° |
| 2026-04-26 12:01 | 59.82824 | 20.24684 | 23464 ft | 330 kts | 269° |
| 2026-04-26 12:02 | 59.82181 | 20.20320 | 23051 ft | 328 kts | 269° |
| 2026-04-26 12:02 | 59.81540 | 20.15998 | 22714 ft | 324 kts | 269° |
| 2026-04-26 12:02 | 59.80905 | 20.11730 | 22358 ft | 321 kts | 269° |
| 2026-04-26 12:02 | 59.80284 | 20.07556 | 22013 ft | 318 kts | 269° |
| 2026-04-26 12:03 | 59.79658 | 20.03359 | 21690 ft | 315 kts | 269° |
| 2026-04-26 12:03 | 59.79035 | 19.99181 | 21329 ft | 316 kts | 268° |
| 2026-04-26 12:03 | 59.78412 | 19.95007 | 21010 ft | 316 kts | 268° |
| 2026-04-26 12:03 | 59.77782 | 19.90774 | 20678 ft | 324 kts | 267° |
| 2026-04-26 12:04 | 59.77135 | 19.86443 | 20327 ft | 330 kts | 266° |
| 2026-04-26 12:04 | 59.76476 | 19.82093 | 19968 ft | 328 kts | 266° |
| 2026-04-26 12:04 | 59.75816 | 19.77769 | 19615 ft | 326 kts | 266° |
| 2026-04-26 12:04 | 59.75162 | 19.73486 | 19266 ft | 323 kts | 266° |
| 2026-04-26 12:05 | 59.74536 | 19.69235 | 18927 ft | 319 kts | 267° |
| 2026-04-26 12:05 | 59.73948 | 19.65010 | 18609 ft | 316 kts | 267° |
| 2026-04-26 12:05 | 59.73373 | 19.60813 | 18261 ft | 314 kts | 267° |
| 2026-04-26 12:05 | 59.72801 | 19.56643 | 17875 ft | 312 kts | 266° |
| 2026-04-26 12:06 | 59.72237 | 19.52557 | 17528 ft | 309 kts | 266° |
| 2026-04-26 12:06 | 59.71669 | 19.48466 | 17191 ft | 306 kts | 266° |
| 2026-04-26 12:06 | 59.71103 | 19.44408 | 16864 ft | 304 kts | 265° |
| 2026-04-26 12:06 | 59.70542 | 19.40396 | 16538 ft | 301 kts | 265° |
| 2026-04-26 12:07 | 59.69982 | 19.36404 | 16193 ft | 299 kts | 265° |
| 2026-04-26 12:07 | 59.69424 | 19.32436 | 15882 ft | 297 kts | 264° |
| 2026-04-26 12:07 | 59.68870 | 19.28509 | 15563 ft | 295 kts | 264° |
| 2026-04-26 12:07 | 59.68326 | 19.24659 | 15236 ft | 293 kts | 264° |
| 2026-04-26 12:08 | 59.67771 | 19.20733 | 14911 ft | 291 kts | 263° |
| 2026-04-26 12:08 | 59.67231 | 19.16926 | 14595 ft | 290 kts | 263° |
| 2026-04-26 12:08 | 59.66685 | 19.13100 | 14283 ft | 288 kts | 263° |
| 2026-04-26 12:08 | 59.66140 | 19.09288 | 13974 ft | 287 kts | 262° |
| 2026-04-26 12:09 | 59.65599 | 19.05503 | 13627 ft | 286 kts | 262° |
| 2026-04-26 12:09 | 59.65062 | 19.01731 | 13303 ft | 284 kts | 262° |
| 2026-04-26 12:09 | 59.64529 | 18.97982 | 12907 ft | 284 kts | 262° |
| 2026-04-26 12:09 | 59.63989 | 18.94172 | 12328 ft | 290 kts | 262° |
| 2026-04-26 12:10 | 59.63435 | 18.90273 | 11701 ft | 297 kts | 261° |
| 2026-04-26 12:10 | 59.62876 | 18.86389 | 11309 ft | 291 kts | 261° |
| 2026-04-26 12:10 | 59.62324 | 18.82542 | 10955 ft | 290 kts | 261° |
| 2026-04-26 12:10 | 59.61783 | 18.78780 | 10629 ft | 287 kts | 260° |
| 2026-04-26 12:11 | 59.61236 | 18.74993 | 10317 ft | 284 kts | 260° |
| 2026-04-26 12:11 | 59.60700 | 18.71307 | 10202 ft | 275 kts | 260° |
| 2026-04-26 12:11 | 59.60181 | 18.67738 | 10088 ft | 266 kts | 259° |
| 2026-04-26 12:11 | 59.59475 | 18.64365 | 9915 ft | 268 kts | 249° |
| 2026-04-26 12:12 | 59.58606 | 18.61061 | 9646 ft | 275 kts | 248° |
| 2026-04-26 12:12 | 59.57708 | 18.57711 | 9383 ft | 277 kts | 248° |
| 2026-04-26 12:12 | 59.57002 | 18.55093 | 9243 ft | 272 kts | 248° |
| 2026-04-26 12:12 | 59.56414 | 18.52930 | 9104 ft | 269 kts | 248° |
| 2026-04-26 12:13 | 59.55232 | 18.48599 | 8734 ft | 266 kts | 248° |
| 2026-04-26 12:13 | 59.54356 | 18.45404 | 8455 ft | 264 kts | 248° |
| 2026-04-26 12:13 | 59.53480 | 18.42215 | 8175 ft | 264 kts | 248° |
| 2026-04-26 12:13 | 59.52615 | 18.39072 | 7837 ft | 264 kts | 248° |
| 2026-04-26 12:14 | 59.51739 | 18.35900 | 7549 ft | 263 kts | 248° |
| 2026-04-26 12:14 | 59.50862 | 18.32752 | 7271 ft | 262 kts | 248° |
| 2026-04-26 12:14 | 59.49983 | 18.29609 | 6991 ft | 261 kts | 248° |
| 2026-04-26 12:14 | 59.49106 | 18.26493 | 6720 ft | 260 kts | 248° |
| 2026-04-26 12:15 | 59.48225 | 18.23378 | 6444 ft | 260 kts | 248° |
| 2026-04-26 12:15 | 59.47350 | 18.20298 | 6288 ft | 253 kts | 248° |
| 2026-04-26 12:15 | 59.46498 | 18.17326 | 6174 ft | 245 kts | 248° |
| 2026-04-26 12:15 | 59.45670 | 18.14454 | 6084 ft | 239 kts | 247° |
| 2026-04-26 12:16 | 59.44870 | 18.11685 | 5986 ft | 232 kts | 248° |
| 2026-04-26 12:16 | 59.44074 | 18.08949 | 5894 ft | 225 kts | 247° |
| 2026-04-26 12:16 | 59.43304 | 18.06311 | 5714 ft | 222 kts | 247° |
| 2026-04-26 12:16 | 59.42549 | 18.03718 | 5516 ft | 221 kts | 247° |
| 2026-04-26 12:17 | 59.41790 | 18.01105 | 5259 ft | 220 kts | 247° |
| 2026-04-26 12:17 | 59.41037 | 17.98501 | 5043 ft | 219 kts | 247° |
| 2026-04-26 12:17 | 59.40321 | 17.95877 | 4811 ft | 215 kts | 257° |
| 2026-04-26 12:17 | 59.40030 | 17.93099 | 4630 ft | 206 kts | 267° |
| 2026-04-26 12:18 | 59.40020 | 17.90351 | 4448 ft | 193 kts | 294° |
| 2026-04-26 12:18 | 59.40829 | 17.88513 | 4440 ft | 178 kts | 338° |
| 2026-04-26 12:18 | 59.42034 | 17.88323 | 4373 ft | 179 kts | 359° |
| 2026-04-26 12:18 | 59.43287 | 17.88440 | 4151 ft | 187 kts | 359° |
| 2026-04-26 12:19 | 59.44580 | 17.88637 | 3896 ft | 185 kts | 2° |
| 2026-04-26 12:19 | 59.45845 | 17.88994 | 3646 ft | 183 kts | 5° |
| 2026-04-26 12:19 | 59.47100 | 17.89432 | 3369 ft | 181 kts | 6° |
| 2026-04-26 12:19 | 59.48331 | 17.89875 | 3128 ft | 180 kts | 6° |
| 2026-04-26 12:20 | 59.49559 | 17.90314 | 2877 ft | 178 kts | 6° |
| 2026-04-26 12:20 | 59.50759 | 17.90761 | 2617 ft | 173 kts | 5° |
| 2026-04-26 12:20 | 59.51929 | 17.91182 | 2382 ft | 169 kts | 5° |
| 2026-04-26 12:20 | 59.53077 | 17.91603 | 2152 ft | 166 kts | 5° |
| 2026-04-26 12:21 | 59.54164 | 17.92002 | 1929 ft | 150 kts | 6° |
| 2026-04-26 12:21 | 59.55137 | 17.92358 | 1700 ft | 134 kts | 4° |
| 2026-04-26 12:21 | 59.56022 | 17.92700 | 1376 ft | 126 kts | 6° |
| 2026-04-26 12:21 | 59.56860 | 17.93017 | 1230 ft | 121 kts | 4° |
| 2026-04-26 12:22 | 59.57750 | 17.93312 | 1148 ft | 139 kts | 6° |
| 2026-04-26 12:22 | 59.58690 | 17.93660 | 964 ft | 131 kts | 5° |
| 2026-04-26 12:22 | 59.59565 | 17.93970 | 792 ft | 129 kts | 5° |
| 2026-04-26 12:22 | 59.60477 | 17.94284 | 651 ft | 137 kts | 3° |
| 2026-04-26 12:23 | 59.61426 | 17.94638 | 434 ft | 139 kts | 4° |
| 2026-04-26 12:23 | 59.62382 | 17.94992 | 223 ft | 139 kts | 4° |
| 2026-04-26 12:23 | 59.63305 | 17.95322 | 126 ft | 126 kts | 6° |
| 2026-04-26 12:23 | 59.63984 | 17.95567 | 112 ft | 68 kts | 11° |
| 2026-04-26 12:24 | 59.64311 | 17.95682 | 111 ft | 42 kts | 9° |
| 2026-04-26 12:24 | 59.64584 | 17.95637 | 106 ft | 38 kts | 341° |
| 2026-04-26 12:24 | 59.64698 | 17.95522 | 105 ft | 15 kts | 295° |
| 2026-04-26 12:25 | 59.64567 | 17.95280 | 104 ft | 14 kts | 233° |
| 2026-04-26 12:25 | 59.64513 | 17.95115 | 103 ft | 15 kts | 237° |
| 2026-04-26 12:25 | 59.64452 | 17.94925 | 103 ft | 18 kts | 238° |
| 2026-04-26 12:25 | 59.64378 | 17.94693 | 102 ft | 23 kts | 238° |
| 2026-04-26 12:26 | 59.64283 | 17.94397 | 102 ft | 28 kts | 238° |
| 2026-04-26 12:26 | 59.64172 | 17.94052 | 106 ft | 30 kts | 238° |
| 2026-04-26 12:26 | 59.64065 | 17.93713 | 110 ft | 28 kts | 238° |
| 2026-04-26 12:26 | 59.63989 | 17.93376 | 110 ft | 26 kts | 269° |
| 2026-04-26 12:27 | 59.64052 | 17.93054 | 109 ft | 25 kts | 297° |
| 2026-04-26 12:27 | 59.64128 | 17.92768 | 111 ft | 23 kts | 297° |
| 2026-04-26 12:27 | 59.64192 | 17.92525 | 114 ft | 10 kts | 297° |
| 2026-04-26 12:27 | 59.64245 | 17.92485 | 112 ft | 9 kts | 24° |
| 2026-04-26 12:28 | 59.64308 | 17.92558 | 110 ft | 11 kts | 40° |
| 2026-04-26 12:28 | 59.64364 | 17.92670 | 111 ft | 11 kts | 46° |
| 2026-04-26 12:28 | 59.64397 | 17.92738 | 111 ft | 2 kts | 46° |
| 2026-04-26 12:28 | 59.64399 | 17.92741 | 111 ft | 0 kts | 46° |
| 2026-04-26 12:29 | 59.64399 | 17.92742 | 111 ft | 0 kts | 46° |